sensor_id;sensor_type;location;lat;lon;timestamp;temperature;humidity
40059;SHT31;25763;49.972;8.568;2023-06-14T00:00:45;17.82;52.33
40059;SHT31;25763;49.972;8.568;2023-06-14T00:03:11;17.88;52.24
40059;SHT31;25763;49.972;8.568;2023-06-14T00:05:40;17.88;52.30
40059;SHT31;25763;49.972;8.568;2023-06-14T00:08:08;17.93;52.27
40059;SHT31;25763;49.972;8.568;2023-06-14T00:10:35;17.95;51.85
40059;SHT31;25763;49.972;8.568;2023-06-14T00:13:03;17.95;51.90
40059;SHT31;25763;49.972;8.568;2023-06-14T00:15:30;17.98;52.51
40059;SHT31;25763;49.972;8.568;2023-06-14T00:17:57;18.03;53.04
40059;SHT31;25763;49.972;8.568;2023-06-14T00:20:26;17.93;53.95
40059;SHT31;25763;49.972;8.568;2023-06-14T00:22:52;17.85;53.58
40059;SHT31;25763;49.972;8.568;2023-06-14T00:25:19;17.78;53.73
40059;SHT31;25763;49.972;8.568;2023-06-14T00:27:44;17.74;53.82
40059;SHT31;25763;49.972;8.568;2023-06-14T00:30:10;17.65;54.39
40059;SHT31;25763;49.972;8.568;2023-06-14T00:32:36;17.61;53.97
40059;SHT31;25763;49.972;8.568;2023-06-14T00:35:01;17.57;54.41
40059;SHT31;25763;49.972;8.568;2023-06-14T00:37:26;17.54;54.15
40059;SHT31;25763;49.972;8.568;2023-06-14T00:39:52;17.49;54.67
40059;SHT31;25763;49.972;8.568;2023-06-14T00:42:27;17.47;54.84
40059;SHT31;25763;49.972;8.568;2023-06-14T00:44:52;17.34;54.83
40059;SHT31;25763;49.972;8.568;2023-06-14T00:47:18;17.33;54.22
40059;SHT31;25763;49.972;8.568;2023-06-14T00:49:48;17.30;54.41
40059;SHT31;25763;49.972;8.568;2023-06-14T00:52:15;17.30;54.24
40059;SHT31;25763;49.972;8.568;2023-06-14T00:54:42;17.26;54.29
40059;SHT31;25763;49.972;8.568;2023-06-14T00:57:08;17.18;54.14
40059;SHT31;25763;49.972;8.568;2023-06-14T00:59:40;17.15;54.05
40059;SHT31;25763;49.972;8.568;2023-06-14T01:02:07;17.08;54.58
40059;SHT31;25763;49.972;8.568;2023-06-14T01:04:32;17.14;54.06
40059;SHT31;25763;49.972;8.568;2023-06-14T01:10:32;17.14;53.45
40059;SHT31;25763;49.972;8.568;2023-06-14T01:13:13;17.16;53.69
40059;SHT31;25763;49.972;8.568;2023-06-14T01:15:43;17.19;53.19
40059;SHT31;25763;49.972;8.568;2023-06-14T01:18:09;17.23;52.74
40059;SHT31;25763;49.972;8.568;2023-06-14T01:20:44;17.25;52.94
40059;SHT31;25763;49.972;8.568;2023-06-14T01:23:11;17.29;52.59
40059;SHT31;25763;49.972;8.568;2023-06-14T01:25:39;17.26;52.38
40059;SHT31;25763;49.972;8.568;2023-06-14T01:28:06;17.26;52.45
40059;SHT31;25763;49.972;8.568;2023-06-14T01:30:37;17.26;52.62
40059;SHT31;25763;49.972;8.568;2023-06-14T01:33:03;17.20;52.69
40059;SHT31;25763;49.972;8.568;2023-06-14T01:35:29;17.26;52.55
40059;SHT31;25763;49.972;8.568;2023-06-14T01:37:55;17.26;52.78
40059;SHT31;25763;49.972;8.568;2023-06-14T01:40:21;17.30;52.39
40059;SHT31;25763;49.972;8.568;2023-06-14T01:42:49;17.32;52.54
40059;SHT31;25763;49.972;8.568;2023-06-14T01:45:15;17.36;52.88
40059;SHT31;25763;49.972;8.568;2023-06-14T01:47:41;17.40;52.97
40059;SHT31;25763;49.972;8.568;2023-06-14T01:50:07;17.41;52.74
40059;SHT31;25763;49.972;8.568;2023-06-14T01:52:33;17.29;52.50
40059;SHT31;25763;49.972;8.568;2023-06-14T01:54:58;17.40;52.87
40059;SHT31;25763;49.972;8.568;2023-06-14T01:57:27;17.32;52.58
40059;SHT31;25763;49.972;8.568;2023-06-14T01:59:52;17.26;53.05
40059;SHT31;25763;49.972;8.568;2023-06-14T02:02:17;17.27;52.92
40059;SHT31;25763;49.972;8.568;2023-06-14T02:04:43;17.26;53.15
40059;SHT31;25763;49.972;8.568;2023-06-14T02:07:08;17.20;53.04
40059;SHT31;25763;49.972;8.568;2023-06-14T02:09:34;17.18;53.35
40059;SHT31;25763;49.972;8.568;2023-06-14T02:12:02;17.22;53.67
40059;SHT31;25763;49.972;8.568;2023-06-14T02:14:27;17.22;54.05
40059;SHT31;25763;49.972;8.568;2023-06-14T02:16:53;17.22;54.17
40059;SHT31;25763;49.972;8.568;2023-06-14T02:19:19;17.06;53.98
40059;SHT31;25763;49.972;8.568;2023-06-14T02:21:45;17.04;54.14
40059;SHT31;25763;49.972;8.568;2023-06-14T02:24:10;17.12;54.82
40059;SHT31;25763;49.972;8.568;2023-06-14T02:26:36;17.16;54.48
40059;SHT31;25763;49.972;8.568;2023-06-14T02:29:06;17.19;55.11
40059;SHT31;25763;49.972;8.568;2023-06-14T02:31:35;17.18;55.47
40059;SHT31;25763;49.972;8.568;2023-06-14T02:34:00;17.15;55.05
40059;SHT31;25763;49.972;8.568;2023-06-14T02:36:26;17.16;54.98
40059;SHT31;25763;49.972;8.568;2023-06-14T02:38:51;17.15;55.27
40059;SHT31;25763;49.972;8.568;2023-06-14T02:41:19;17.11;55.08
40059;SHT31;25763;49.972;8.568;2023-06-14T02:43:44;17.12;55.22
40059;SHT31;25763;49.972;8.568;2023-06-14T02:46:10;17.04;54.93
40059;SHT31;25763;49.972;8.568;2023-06-14T02:48:36;17.02;55.37
40059;SHT31;25763;49.972;8.568;2023-06-14T02:51:01;17.04;55.37
40059;SHT31;25763;49.972;8.568;2023-06-14T02:53:27;17.02;55.22
40059;SHT31;25763;49.972;8.568;2023-06-14T02:55:52;16.98;55.11
40059;SHT31;25763;49.972;8.568;2023-06-14T02:58:17;16.94;55.49
40059;SHT31;25763;49.972;8.568;2023-06-14T03:00:44;16.94;55.20
40059;SHT31;25763;49.972;8.568;2023-06-14T03:03:09;16.94;54.99
40059;SHT31;25763;49.972;8.568;2023-06-14T03:05:41;16.87;54.72
40059;SHT31;25763;49.972;8.568;2023-06-14T03:08:11;16.83;54.52
40059;SHT31;25763;49.972;8.568;2023-06-14T03:10:42;16.77;54.88
40059;SHT31;25763;49.972;8.568;2023-06-14T03:13:08;16.75;54.36
40059;SHT31;25763;49.972;8.568;2023-06-14T03:15:33;16.75;54.72
40059;SHT31;25763;49.972;8.568;2023-06-14T03:17:59;16.67;54.47
40059;SHT31;25763;49.972;8.568;2023-06-14T03:20:26;16.63;54.63
40059;SHT31;25763;49.972;8.568;2023-06-14T03:22:54;16.73;54.56
40059;SHT31;25763;49.972;8.568;2023-06-14T03:25:19;16.65;54.92
40059;SHT31;25763;49.972;8.568;2023-06-14T03:27:47;16.46;54.80
40059;SHT31;25763;49.972;8.568;2023-06-14T03:30:12;16.59;55.16
40059;SHT31;25763;49.972;8.568;2023-06-14T03:32:38;16.49;54.91
40059;SHT31;25763;49.972;8.568;2023-06-14T03:35:03;16.40;55.30
40059;SHT31;25763;49.972;8.568;2023-06-14T03:37:29;16.32;55.45
40059;SHT31;25763;49.972;8.568;2023-06-14T03:39:54;16.20;55.96
40059;SHT31;25763;49.972;8.568;2023-06-14T03:42:19;16.00;56.84
40059;SHT31;25763;49.972;8.568;2023-06-14T03:44:45;16.00;56.95
40059;SHT31;25763;49.972;8.568;2023-06-14T03:47:10;15.96;57.19
40059;SHT31;25763;49.972;8.568;2023-06-14T03:49:35;15.98;57.36
40059;SHT31;25763;49.972;8.568;2023-06-14T03:52:02;16.08;57.60
40059;SHT31;25763;49.972;8.568;2023-06-14T03:54:29;16.07;57.53
40059;SHT31;25763;49.972;8.568;2023-06-14T03:56:54;16.10;57.58
40059;SHT31;25763;49.972;8.568;2023-06-14T03:59:22;16.04;57.26
40059;SHT31;25763;49.972;8.568;2023-06-14T04:01:47;16.14;57.46
40059;SHT31;25763;49.972;8.568;2023-06-14T04:04:14;16.24;57.29
40059;SHT31;25763;49.972;8.568;2023-06-14T04:06:41;16.25;56.99
40059;SHT31;25763;49.972;8.568;2023-06-14T04:09:08;16.29;56.90
40059;SHT31;25763;49.972;8.568;2023-06-14T04:11:33;16.29;57.30
40059;SHT31;25763;49.972;8.568;2023-06-14T04:13:59;16.32;56.81
40059;SHT31;25763;49.972;8.568;2023-06-14T04:16:25;16.38;56.68
40059;SHT31;25763;49.972;8.568;2023-06-14T04:18:51;16.53;56.39
40059;SHT31;25763;49.972;8.568;2023-06-14T04:21:17;16.52;56.43
40059;SHT31;25763;49.972;8.568;2023-06-14T04:23:43;16.63;56.55
40059;SHT31;25763;49.972;8.568;2023-06-14T04:26:09;16.68;56.24
40059;SHT31;25763;49.972;8.568;2023-06-14T04:28:36;16.73;56.29
40059;SHT31;25763;49.972;8.568;2023-06-14T04:31:06;16.68;55.72
40059;SHT31;25763;49.972;8.568;2023-06-14T04:33:35;16.78;55.63
40059;SHT31;25763;49.972;8.568;2023-06-14T04:36:10;16.78;56.08
40059;SHT31;25763;49.972;8.568;2023-06-14T04:38:37;16.84;56.15
40059;SHT31;25763;49.972;8.568;2023-06-14T04:41:03;16.94;56.06
40059;SHT31;25763;49.972;8.568;2023-06-14T04:43:28;17.02;56.25
40059;SHT31;25763;49.972;8.568;2023-06-14T04:45:53;17.06;55.93
40059;SHT31;25763;49.972;8.568;2023-06-14T04:48:20;16.85;55.79
40059;SHT31;25763;49.972;8.568;2023-06-14T04:50:46;16.97;55.98
40059;SHT31;25763;49.972;8.568;2023-06-14T04:53:11;16.98;56.48
40059;SHT31;25763;49.972;8.568;2023-06-14T04:55:37;16.94;55.76
40059;SHT31;25763;49.972;8.568;2023-06-14T04:58:03;16.97;55.78
40059;SHT31;25763;49.972;8.568;2023-06-14T05:00:28;17.01;55.95
40059;SHT31;25763;49.972;8.568;2023-06-14T05:02:55;16.91;56.29
40059;SHT31;25763;49.972;8.568;2023-06-14T05:05:22;17.09;56.34
40059;SHT31;25763;49.972;8.568;2023-06-14T05:07:48;17.18;55.94
40059;SHT31;25763;49.972;8.568;2023-06-14T05:10:13;17.26;56.30
40059;SHT31;25763;49.972;8.568;2023-06-14T05:12:38;17.39;55.31
40059;SHT31;25763;49.972;8.568;2023-06-14T05:15:04;17.54;55.44
40059;SHT31;25763;49.972;8.568;2023-06-14T05:17:30;17.41;54.87
40059;SHT31;25763;49.972;8.568;2023-06-14T05:19:55;17.43;55.05
40059;SHT31;25763;49.972;8.568;2023-06-14T05:22:23;17.40;55.01
40059;SHT31;25763;49.972;8.568;2023-06-14T05:24:48;17.63;55.01
40059;SHT31;25763;49.972;8.568;2023-06-14T05:27:14;17.43;54.64
40059;SHT31;25763;49.972;8.568;2023-06-14T05:29:39;17.58;54.82
40059;SHT31;25763;49.972;8.568;2023-06-14T05:32:05;17.81;54.28
40059;SHT31;25763;49.972;8.568;2023-06-14T05:34:31;17.86;53.30
40059;SHT31;25763;49.972;8.568;2023-06-14T05:36:56;18.03;54.09
40059;SHT31;25763;49.972;8.568;2023-06-14T05:39:22;18.26;53.49
40059;SHT31;25763;49.972;8.568;2023-06-14T05:41:49;18.10;53.46
40059;SHT31;25763;49.972;8.568;2023-06-14T05:44:14;18.18;52.85
40059;SHT31;25763;49.972;8.568;2023-06-14T05:46:40;18.41;53.71
40059;SHT31;25763;49.972;8.568;2023-06-14T05:49:06;18.16;53.17
40059;SHT31;25763;49.972;8.568;2023-06-14T05:51:31;18.18;52.85
40059;SHT31;25763;49.972;8.568;2023-06-14T05:53:57;18.30;53.43
40059;SHT31;25763;49.972;8.568;2023-06-14T05:56:22;18.14;52.15
40059;SHT31;25763;49.972;8.568;2023-06-14T05:58:49;18.34;52.42
40059;SHT31;25763;49.972;8.568;2023-06-14T06:01:14;18.43;51.91
40059;SHT31;25763;49.972;8.568;2023-06-14T06:03:40;18.62;52.34
40059;SHT31;25763;49.972;8.568;2023-06-14T06:06:05;18.59;51.86
40059;SHT31;25763;49.972;8.568;2023-06-14T06:08:31;18.72;52.21
40059;SHT31;25763;49.972;8.568;2023-06-14T06:10:57;18.75;51.29
40059;SHT31;25763;49.972;8.568;2023-06-14T06:13:23;18.80;51.31
40059;SHT31;25763;49.972;8.568;2023-06-14T06:15:48;18.51;51.62
40059;SHT31;25763;49.972;8.568;2023-06-14T06:18:13;18.59;52.03
40059;SHT31;25763;49.972;8.568;2023-06-14T06:20:39;18.80;51.54
40059;SHT31;25763;49.972;8.568;2023-06-14T06:23:04;18.99;51.64
40059;SHT31;25763;49.972;8.568;2023-06-14T06:25:29;18.94;51.24
40059;SHT31;25763;49.972;8.568;2023-06-14T06:27:57;18.71;51.58
40059;SHT31;25763;49.972;8.568;2023-06-14T06:30:23;18.85;51.48
40059;SHT31;25763;49.972;8.568;2023-06-14T06:32:48;19.08;51.68
40059;SHT31;25763;49.972;8.568;2023-06-14T06:35:14;18.97;51.71
40059;SHT31;25763;49.972;8.568;2023-06-14T06:37:41;18.99;51.16
40059;SHT31;25763;49.972;8.568;2023-06-14T06:40:07;19.30;51.25
40059;SHT31;25763;49.972;8.568;2023-06-14T06:42:34;19.24;50.83
40059;SHT31;25763;49.972;8.568;2023-06-14T06:44:59;19.17;50.82
40059;SHT31;25763;49.972;8.568;2023-06-14T06:47:25;19.20;50.99
40059;SHT31;25763;49.972;8.568;2023-06-14T06:49:50;19.23;50.85
40059;SHT31;25763;49.972;8.568;2023-06-14T06:52:16;19.14;51.07
40059;SHT31;25763;49.972;8.568;2023-06-14T06:54:41;19.26;51.37
40059;SHT31;25763;49.972;8.568;2023-06-14T06:57:06;19.53;50.55
40059;SHT31;25763;49.972;8.568;2023-06-14T06:59:33;19.84;50.52
40059;SHT31;25763;49.972;8.568;2023-06-14T07:01:58;19.72;49.93
40059;SHT31;25763;49.972;8.568;2023-06-14T07:04:24;20.00;50.49
40059;SHT31;25763;49.972;8.568;2023-06-14T07:06:49;19.84;49.52
40059;SHT31;25763;49.972;8.568;2023-06-14T07:09:15;19.97;50.10
40059;SHT31;25763;49.972;8.568;2023-06-14T07:11:43;19.98;50.39
40059;SHT31;25763;49.972;8.568;2023-06-14T07:14:09;20.07;49.42
40059;SHT31;25763;49.972;8.568;2023-06-14T07:16:34;19.91;50.00
40059;SHT31;25763;49.972;8.568;2023-06-14T07:19:01;20.07;49.64
40059;SHT31;25763;49.972;8.568;2023-06-14T07:21:27;20.40;48.97
40059;SHT31;25763;49.972;8.568;2023-06-14T07:23:53;20.17;48.99
40059;SHT31;25763;49.972;8.568;2023-06-14T07:26:19;20.25;49.44
40059;SHT31;25763;49.972;8.568;2023-06-14T07:28:44;20.43;48.81
40059;SHT31;25763;49.972;8.568;2023-06-14T07:31:10;20.26;48.72
40059;SHT31;25763;49.972;8.568;2023-06-14T07:33:36;20.21;48.43
40059;SHT31;25763;49.972;8.568;2023-06-14T07:36:02;20.53;48.40
40059;SHT31;25763;49.972;8.568;2023-06-14T07:38:28;21.05;49.13
40059;SHT31;25763;49.972;8.568;2023-06-14T07:40:53;21.11;47.95
40059;SHT31;25763;49.972;8.568;2023-06-14T07:43:18;21.16;46.52
40059;SHT31;25763;49.972;8.568;2023-06-14T07:45:44;21.18;46.24
40059;SHT31;25763;49.972;8.568;2023-06-14T07:48:09;21.18;46.38
40059;SHT31;25763;49.972;8.568;2023-06-14T07:50:34;20.94;46.42
40059;SHT31;25763;49.972;8.568;2023-06-14T07:53:00;20.91;45.49
40059;SHT31;25763;49.972;8.568;2023-06-14T07:55:25;20.80;45.61
40059;SHT31;25763;49.972;8.568;2023-06-14T07:57:51;20.90;45.39
40059;SHT31;25763;49.972;8.568;2023-06-14T08:00:18;21.22;45.64
40059;SHT31;25763;49.972;8.568;2023-06-14T08:02:44;21.12;45.62
40059;SHT31;25763;49.972;8.568;2023-06-14T08:05:11;21.58;46.03
40059;SHT31;25763;49.972;8.568;2023-06-14T08:07:38;21.58;45.64
40059;SHT31;25763;49.972;8.568;2023-06-14T08:10:07;22.05;44.60
40059;SHT31;25763;49.972;8.568;2023-06-14T08:12:33;21.77;44.46
40059;SHT31;25763;49.972;8.568;2023-06-14T08:15:00;21.77;45.54
40059;SHT31;25763;49.972;8.568;2023-06-14T08:17:25;21.67;43.83
40059;SHT31;25763;49.972;8.568;2023-06-14T08:19:51;21.49;44.39
40059;SHT31;25763;49.972;8.568;2023-06-14T08:22:17;21.89;43.28
40059;SHT31;25763;49.972;8.568;2023-06-14T08:24:43;21.94;44.31
40059;SHT31;25763;49.972;8.568;2023-06-14T08:27:09;21.88;43.93
40059;SHT31;25763;49.972;8.568;2023-06-14T08:29:35;21.99;44.39
40059;SHT31;25763;49.972;8.568;2023-06-14T08:32:01;21.81;43.73
40059;SHT31;25763;49.972;8.568;2023-06-14T08:34:27;21.85;45.50
40059;SHT31;25763;49.972;8.568;2023-06-14T08:36:52;21.99;44.35
40059;SHT31;25763;49.972;8.568;2023-06-14T08:39:17;22.09;44.34
40059;SHT31;25763;49.972;8.568;2023-06-14T08:41:46;21.63;44.88
40059;SHT31;25763;49.972;8.568;2023-06-14T08:44:15;21.74;44.91
40059;SHT31;25763;49.972;8.568;2023-06-14T08:46:41;22.10;44.09
40059;SHT31;25763;49.972;8.568;2023-06-14T08:49:08;22.32;43.73
40059;SHT31;25763;49.972;8.568;2023-06-14T08:51:36;22.13;42.93
40059;SHT31;25763;49.972;8.568;2023-06-14T08:54:02;22.39;42.31
40059;SHT31;25763;49.972;8.568;2023-06-14T08:56:30;22.30;41.69
40059;SHT31;25763;49.972;8.568;2023-06-14T08:58:57;22.36;42.82
40059;SHT31;25763;49.972;8.568;2023-06-14T09:01:25;22.93;42.30
40059;SHT31;25763;49.972;8.568;2023-06-14T09:03:52;23.02;44.19
40059;SHT31;25763;49.972;8.568;2023-06-14T09:06:20;22.93;41.01
40059;SHT31;25763;49.972;8.568;2023-06-14T09:08:48;22.72;42.59
40059;SHT31;25763;49.972;8.568;2023-06-14T09:11:16;22.75;41.79
40059;SHT31;25763;49.972;8.568;2023-06-14T09:13:44;23.19;43.16
40059;SHT31;25763;49.972;8.568;2023-06-14T09:16:09;23.54;40.67
40059;SHT31;25763;49.972;8.568;2023-06-14T09:18:45;22.81;42.01
40059;SHT31;25763;49.972;8.568;2023-06-14T09:21:14;22.79;41.04
40059;SHT31;25763;49.972;8.568;2023-06-14T09:23:48;22.74;40.65
40059;SHT31;25763;49.972;8.568;2023-06-14T09:26:15;22.69;41.27
40059;SHT31;25763;49.972;8.568;2023-06-14T09:28:47;22.57;40.19
40059;SHT31;25763;49.972;8.568;2023-06-14T09:31:15;22.68;41.63
40059;SHT31;25763;49.972;8.568;2023-06-14T09:33:44;23.09;39.96
40059;SHT31;25763;49.972;8.568;2023-06-14T09:36:24;23.40;39.83
40059;SHT31;25763;49.972;8.568;2023-06-14T09:39:00;23.44;40.77
40059;SHT31;25763;49.972;8.568;2023-06-14T09:41:35;23.45;41.39
40059;SHT31;25763;49.972;8.568;2023-06-14T09:44:03;23.26;40.86
40059;SHT31;25763;49.972;8.568;2023-06-14T09:46:29;23.19;41.81
40059;SHT31;25763;49.972;8.568;2023-06-14T09:48:56;23.62;41.15
40059;SHT31;25763;49.972;8.568;2023-06-14T09:51:23;23.30;41.04
40059;SHT31;25763;49.972;8.568;2023-06-14T09:53:49;23.44;39.30
40059;SHT31;25763;49.972;8.568;2023-06-14T09:56:28;23.99;41.76
40059;SHT31;25763;49.972;8.568;2023-06-14T09:58:56;23.65;39.52
40059;SHT31;25763;49.972;8.568;2023-06-14T10:01:26;24.00;38.90
40059;SHT31;25763;49.972;8.568;2023-06-14T10:04:12;23.96;40.86
40059;SHT31;25763;49.972;8.568;2023-06-14T10:06:40;24.49;39.46
40059;SHT31;25763;49.972;8.568;2023-06-14T10:09:10;23.47;39.16
40059;SHT31;25763;49.972;8.568;2023-06-14T10:11:37;24.20;42.68
40059;SHT31;25763;49.972;8.568;2023-06-14T10:14:09;24.83;39.79
40059;SHT31;25763;49.972;8.568;2023-06-14T10:17:03;24.59;39.60
40059;SHT31;25763;49.972;8.568;2023-06-14T10:22:01;25.67;37.89
40059;SHT31;25763;49.972;8.568;2023-06-14T10:24:35;25.61;37.84
40059;SHT31;25763;49.972;8.568;2023-06-14T10:27:06;25.06;37.82
40059;SHT31;25763;49.972;8.568;2023-06-14T10:32:25;25.29;37.68
40059;SHT31;25763;49.972;8.568;2023-06-14T10:34:55;25.25;36.42
40059;SHT31;25763;49.972;8.568;2023-06-14T10:37:21;24.62;37.95
40059;SHT31;25763;49.972;8.568;2023-06-14T10:39:46;25.45;38.61
40059;SHT31;25763;49.972;8.568;2023-06-14T10:42:13;25.84;37.30
40059;SHT31;25763;49.972;8.568;2023-06-14T10:44:51;24.87;37.61
40059;SHT31;25763;49.972;8.568;2023-06-14T10:47:20;24.16;38.24
40059;SHT31;25763;49.972;8.568;2023-06-14T10:49:50;23.90;40.31
40059;SHT31;25763;49.972;8.568;2023-06-14T10:52:16;24.68;38.12
40059;SHT31;25763;49.972;8.568;2023-06-14T10:55:07;25.10;38.43
40059;SHT31;25763;49.972;8.568;2023-06-14T10:57:49;25.43;36.69
40059;SHT31;25763;49.972;8.568;2023-06-14T11:00:20;26.05;35.80
40059;SHT31;25763;49.972;8.568;2023-06-14T11:03:15;24.52;37.70
40059;SHT31;25763;49.972;8.568;2023-06-14T11:05:54;24.80;37.27
40059;SHT31;25763;49.972;8.568;2023-06-14T11:10:45;25.67;38.49
40059;SHT31;25763;49.972;8.568;2023-06-14T11:13:11;26.56;36.19
40059;SHT31;25763;49.972;8.568;2023-06-14T11:15:37;25.97;36.57
40059;SHT31;25763;49.972;8.568;2023-06-14T11:18:05;25.66;36.92
40059;SHT31;25763;49.972;8.568;2023-06-14T11:20:33;24.65;39.16
40059;SHT31;25763;49.972;8.568;2023-06-14T11:22:59;24.40;38.65
40059;SHT31;25763;49.972;8.568;2023-06-14T11:25:24;24.34;38.07
40059;SHT31;25763;49.972;8.568;2023-06-14T11:27:50;25.38;40.23
40059;SHT31;25763;49.972;8.568;2023-06-14T11:30:16;25.79;38.71
40059;SHT31;25763;49.972;8.568;2023-06-14T11:32:42;25.14;37.42
40059;SHT31;25763;49.972;8.568;2023-06-14T11:35:08;24.77;37.91
40059;SHT31;25763;49.972;8.568;2023-06-14T11:37:36;24.70;38.98
40059;SHT31;25763;49.972;8.568;2023-06-14T11:40:03;25.03;36.93
40059;SHT31;25763;49.972;8.568;2023-06-14T11:42:31;24.63;37.56
40059;SHT31;25763;49.972;8.568;2023-06-14T11:44:56;24.49;38.92
40059;SHT31;25763;49.972;8.568;2023-06-14T11:47:22;24.51;37.06
40059;SHT31;25763;49.972;8.568;2023-06-14T11:49:48;24.52;38.17
40059;SHT31;25763;49.972;8.568;2023-06-14T11:52:14;24.09;39.52
40059;SHT31;25763;49.972;8.568;2023-06-14T11:54:40;23.90;39.09
40059;SHT31;25763;49.972;8.568;2023-06-14T11:57:06;23.44;40.76
40059;SHT31;25763;49.972;8.568;2023-06-14T11:59:32;23.22;40.74
40059;SHT31;25763;49.972;8.568;2023-06-14T12:02:02;23.31;40.67
40059;SHT31;25763;49.972;8.568;2023-06-14T12:04:29;23.72;41.20
40059;SHT31;25763;49.972;8.568;2023-06-14T12:06:55;23.75;39.90
40059;SHT31;25763;49.972;8.568;2023-06-14T12:09:22;23.71;40.53
40059;SHT31;25763;49.972;8.568;2023-06-14T12:11:49;23.68;39.20
40059;SHT31;25763;49.972;8.568;2023-06-14T12:14:15;24.14;38.99
40059;SHT31;25763;49.972;8.568;2023-06-14T12:16:42;24.62;39.15
40059;SHT31;25763;49.972;8.568;2023-06-14T12:19:17;24.31;37.19
40059;SHT31;25763;49.972;8.568;2023-06-14T12:21:46;24.09;38.21
40059;SHT31;25763;49.972;8.568;2023-06-14T12:24:13;23.68;38.81
40059;SHT31;25763;49.972;8.568;2023-06-14T12:26:39;23.81;39.81
40059;SHT31;25763;49.972;8.568;2023-06-14T12:29:06;24.03;38.67
40059;SHT31;25763;49.972;8.568;2023-06-14T12:31:32;24.24;38.84
40059;SHT31;25763;49.972;8.568;2023-06-14T12:33:58;24.02;38.98
40059;SHT31;25763;49.972;8.568;2023-06-14T12:36:23;24.16;38.60
40059;SHT31;25763;49.972;8.568;2023-06-14T12:38:48;24.14;38.76
40059;SHT31;25763;49.972;8.568;2023-06-14T12:41:14;24.22;37.48
40059;SHT31;25763;49.972;8.568;2023-06-14T12:43:41;24.77;38.01
40059;SHT31;25763;49.972;8.568;2023-06-14T12:46:06;24.61;36.84
40059;SHT31;25763;49.972;8.568;2023-06-14T12:48:31;24.25;38.41
40059;SHT31;25763;49.972;8.568;2023-06-14T12:50:57;24.25;37.90
40059;SHT31;25763;49.972;8.568;2023-06-14T12:53:23;23.93;37.88
40059;SHT31;25763;49.972;8.568;2023-06-14T12:55:48;23.76;38.96
40059;SHT31;25763;49.972;8.568;2023-06-14T12:58:14;23.63;38.78
40059;SHT31;25763;49.972;8.568;2023-06-14T13:00:42;24.00;37.94
40059;SHT31;25763;49.972;8.568;2023-06-14T13:03:07;24.16;37.67
40059;SHT31;25763;49.972;8.568;2023-06-14T13:05:33;24.49;36.94
40059;SHT31;25763;49.972;8.568;2023-06-14T13:07:59;25.21;37.90
40059;SHT31;25763;49.972;8.568;2023-06-14T13:10:25;24.59;37.64
40059;SHT31;25763;49.972;8.568;2023-06-14T13:12:51;24.56;37.90
40059;SHT31;25763;49.972;8.568;2023-06-14T13:15:16;24.68;38.38
40059;SHT31;25763;49.972;8.568;2023-06-14T13:17:42;24.73;38.11
40059;SHT31;25763;49.972;8.568;2023-06-14T13:20:09;25.36;37.62
40059;SHT31;25763;49.972;8.568;2023-06-14T13:22:35;25.87;34.84
40059;SHT31;25763;49.972;8.568;2023-06-14T13:25:01;24.99;36.09
40059;SHT31;25763;49.972;8.568;2023-06-14T13:27:27;24.62;36.66
40059;SHT31;25763;49.972;8.568;2023-06-14T13:29:53;24.28;38.04
40059;SHT31;25763;49.972;8.568;2023-06-14T13:32:20;24.42;38.14
40059;SHT31;25763;49.972;8.568;2023-06-14T13:34:45;24.37;37.19
40059;SHT31;25763;49.972;8.568;2023-06-14T13:37:11;24.35;37.87
40059;SHT31;25763;49.972;8.568;2023-06-14T13:39:36;24.37;37.13
40059;SHT31;25763;49.972;8.568;2023-06-14T13:42:03;24.33;37.48
40059;SHT31;25763;49.972;8.568;2023-06-14T13:44:28;24.16;37.20
40059;SHT31;25763;49.972;8.568;2023-06-14T13:46:53;24.21;37.40
40059;SHT31;25763;49.972;8.568;2023-06-14T13:49:19;25.03;36.57
40059;SHT31;25763;49.972;8.568;2023-06-14T13:51:44;25.24;35.68
40059;SHT31;25763;49.972;8.568;2023-06-14T13:54:12;25.58;37.33
40059;SHT31;25763;49.972;8.568;2023-06-14T13:56:37;26.32;36.79
40059;SHT31;25763;49.972;8.568;2023-06-14T13:59:03;26.28;34.22
40059;SHT31;25763;49.972;8.568;2023-06-14T14:01:28;25.56;34.92
40059;SHT31;25763;49.972;8.568;2023-06-14T14:03:54;25.62;35.44
40059;SHT31;25763;49.972;8.568;2023-06-14T14:06:19;25.91;34.62
40059;SHT31;25763;49.972;8.568;2023-06-14T14:08:45;25.70;34.74
40059;SHT31;25763;49.972;8.568;2023-06-14T14:11:11;26.21;33.62
40059;SHT31;25763;49.972;8.568;2023-06-14T14:13:37;26.12;34.34
40059;SHT31;25763;49.972;8.568;2023-06-14T14:16:04;25.36;35.10
40059;SHT31;25763;49.972;8.568;2023-06-14T14:18:29;24.91;35.42
40059;SHT31;25763;49.972;8.568;2023-06-14T14:20:55;24.93;34.96
40059;SHT31;25763;49.972;8.568;2023-06-14T14:23:21;25.29;34.25
40059;SHT31;25763;49.972;8.568;2023-06-14T14:25:47;25.93;34.26
40059;SHT31;25763;49.972;8.568;2023-06-14T14:28:12;26.22;33.01
40059;SHT31;25763;49.972;8.568;2023-06-14T14:30:39;26.53;34.51
40059;SHT31;25763;49.972;8.568;2023-06-14T14:33:05;26.26;33.44
40059;SHT31;25763;49.972;8.568;2023-06-14T14:35:31;25.83;33.74
40059;SHT31;25763;49.972;8.568;2023-06-14T14:37:57;25.45;33.86
40059;SHT31;25763;49.972;8.568;2023-06-14T14:40:22;24.94;34.92
40059;SHT31;25763;49.972;8.568;2023-06-14T14:42:47;24.69;35.32
40059;SHT31;25763;49.972;8.568;2023-06-14T14:45:13;24.47;36.04
40059;SHT31;25763;49.972;8.568;2023-06-14T14:47:38;24.62;36.57
40059;SHT31;25763;49.972;8.568;2023-06-14T14:50:04;24.56;35.86
40059;SHT31;25763;49.972;8.568;2023-06-14T14:52:33;25.00;36.48
40059;SHT31;25763;49.972;8.568;2023-06-14T14:54:59;25.53;36.74
40059;SHT31;25763;49.972;8.568;2023-06-14T14:57:26;26.36;33.35
40059;SHT31;25763;49.972;8.568;2023-06-14T14:59:51;26.81;32.60
40059;SHT31;25763;49.972;8.568;2023-06-14T15:02:16;25.62;33.97
40059;SHT31;25763;49.972;8.568;2023-06-14T15:04:42;25.10;34.04
40059;SHT31;25763;49.972;8.568;2023-06-14T15:07:07;25.06;33.91
40059;SHT31;25763;49.972;8.568;2023-06-14T15:09:33;25.07;34.12
40059;SHT31;25763;49.972;8.568;2023-06-14T15:11:58;25.29;33.81
40059;SHT31;25763;49.972;8.568;2023-06-14T15:14:24;25.84;33.43
40059;SHT31;25763;49.972;8.568;2023-06-14T15:16:49;26.00;34.26
40059;SHT31;25763;49.972;8.568;2023-06-14T15:19:17;26.11;36.92
40059;SHT31;25763;49.972;8.568;2023-06-14T15:21:43;26.21;35.24
40059;SHT31;25763;49.972;8.568;2023-06-14T15:24:08;26.43;34.49
40059;SHT31;25763;49.972;8.568;2023-06-14T15:26:34;26.42;34.46
40059;SHT31;25763;49.972;8.568;2023-06-14T15:28:59;26.84;34.45
40059;SHT31;25763;49.972;8.568;2023-06-14T15:31:24;26.67;33.49
40059;SHT31;25763;49.972;8.568;2023-06-14T15:33:53;26.43;36.31
40059;SHT31;25763;49.972;8.568;2023-06-14T15:36:18;26.15;34.23
40059;SHT31;25763;49.972;8.568;2023-06-14T15:38:44;26.53;34.65